Time;durP1;ratioP1;P1;durP2;ratioP2;P2;SDS_P1;SDS_P2;PMS_P1;PMS_P2;Temp;Humidity;BMP_temperature;BMP_pressure;BME280_temperature;BME280_humidity;BME280_pressure;Samples;Min_cycle;Max_cycle;Signal;HPM_P1;HPM_P2
2022/10/23 00:00:38;;;;;;;20.95;6.55;;;14.20;99.90;;;;;;5071394;28;20099;-31
2022/10/23 00:03:04;;;;;;;9.93;5.90;;;14.20;99.90;;;;;;5071513;28;20040;-33
2022/10/23 00:05:30;;;;;;;17.98;6.88;;;14.20;99.90;;;;;;5069797;28;20079;-34
2022/10/23 00:07:58;;;;;;;20.65;5.75;;;14.20;99.90;;;;;;5072526;28;20041;-31
2022/10/23 00:10:25;;;;;;;12.68;6.40;;;14.20;99.90;;;;;;5069944;28;20477;-31
2022/10/23 00:12:51;;;;;;;11.67;5.67;;;14.20;99.90;;;;;;5068881;28;20116;-48
2022/10/23 00:15:19;;;;;;;11.07;5.78;;;14.20;99.90;;;;;;5066808;28;20374;-31
2022/10/23 00:17:46;;;;;;;13.63;6.32;;;14.20;99.90;;;;;;5071062;28;20413;-31
2022/10/23 00:20:13;;;;;;;9.75;5.70;;;14.20;99.90;;;;;;5073691;28;20507;-34
2022/10/23 00:22:39;;;;;;;11.00;6.18;;;14.30;99.90;;;;;;5073128;28;20049;-31
2022/10/23 00:25:06;;;;;;;11.18;5.82;;;14.30;99.90;;;;;;5074524;28;20082;-31
2022/10/23 00:27:31;;;;;;;17.15;7.68;;;14.30;99.90;;;;;;5074317;28;20071;-31
2022/10/23 00:29:57;;;;;;;9.32;5.63;;;14.20;99.90;;;;;;5077256;28;20060;-31
2022/10/23 00:32:23;;;;;;;14.98;5.88;;;14.10;99.90;;;;;;5074962;28;20037;-59
2022/10/23 00:34:48;;;;;;;8.55;5.82;;;14.10;99.90;;;;;;5075873;28;20095;-31
2022/10/23 00:37:14;;;;;;;9.40;5.40;;;14.10;99.90;;;;;;5074960;28;20040;-30
2022/10/23 00:39:40;;;;;;;16.25;5.22;;;14.10;99.90;;;;;;5076539;28;20054;-39
2022/10/23 00:42:05;;;;;;;9.25;6.25;;;14.10;99.90;;;;;;5073446;28;20035;-39
2022/10/23 00:44:31;;;;;;;17.10;6.82;;;14.00;99.90;;;;;;5078410;28;20047;-42
2022/10/23 00:46:58;;;;;;;16.45;5.50;;;14.00;99.90;;;;;;5075440;28;20048;-40
2022/10/23 00:49:24;;;;;;;10.20;5.95;;;14.00;99.90;;;;;;5093171;28;20484;-41
2022/10/23 00:52:00;;;;;;;10.68;5.60;;;14.00;99.90;;;;;;5093801;28;20028;-40
2022/10/23 00:54:31;;;;;;;9.85;6.07;;;14.00;99.90;;;;;;5079215;28;20095;-40
2022/10/23 00:57:00;;;;;;;9.05;5.97;;;14.00;99.90;;;;;;5073807;28;20088;-40
2022/10/23 00:59:26;;;;;;;13.23;6.78;;;14.00;99.90;;;;;;5072244;28;20028;-39
2022/10/23 01:01:52;;;;;;;16.95;5.68;;;14.10;99.90;;;;;;5078827;28;20020;-43
2022/10/23 01:04:18;;;;;;;12.45;6.85;;;14.10;99.90;;;;;;5080556;28;20492;-50
2022/10/23 01:06:53;;;;;;;14.20;5.85;;;14.00;99.90;;;;;;5072699;28;20040;-39
2022/10/23 01:09:47;;;;;;;11.23;5.10;;;14.00;99.90;;;;;;5069793;28;20028;-39
2022/10/23 01:12:52;;;;;;;6.97;5.20;;;14.10;99.90;;;;;;5074094;28;20040;-55
2022/10/23 01:15:32;;;;;;;14.43;5.50;;;14.20;99.90;;;;;;5034199;28;20048;-40
2022/10/23 01:18:30;;;;;;;7.95;4.80;;;14.30;99.90;;;;;;5072726;28;20025;-38
2022/10/23 01:21:04;;;;;;;7.00;4.85;;;14.20;99.90;;;;;;5071696;28;20560;-38
2022/10/23 01:24:10;;;;;;;14.55;5.93;;;14.30;99.90;;;;;;5074309;28;20543;-40
2022/10/23 01:26:57;;;;;;;8.63;5.60;;;14.20;99.90;;;;;;5080459;28;20042;-40
2022/10/23 01:29:39;;;;;;;11.48;5.55;;;14.20;99.90;;;;;;5070796;28;20506;-43
2022/10/23 01:32:34;;;;;;;13.60;5.18;;;14.20;99.90;;;;;;5082829;28;20020;-38
2022/10/23 01:35:09;;;;;;;13.57;5.50;;;14.20;99.90;;;;;;5063016;28;20496;-40
2022/10/23 01:38:04;;;;;;;13.38;5.28;;;14.30;99.90;;;;;;5073320;28;20031;-40
2022/10/23 01:40:43;;;;;;;22.88;5.50;;;14.30;99.90;;;;;;5046653;28;20109;-38
2022/10/23 01:43:23;;;;;;;10.40;5.90;;;14.30;99.90;;;;;;5065453;28;20410;-40
2022/10/23 01:45:57;;;;;;;16.70;5.97;;;14.30;99.90;;;;;;5075413;28;20020;-49
2022/10/23 01:48:27;;;;;;;8.35;4.90;;;14.20;99.90;;;;;;5094933;28;20028;-48
2022/10/23 01:50:57;;;;;;;8.88;5.28;;;14.20;99.90;;;;;;5079465;28;20477;-33
2022/10/23 01:53:29;;;;;;;8.48;5.57;;;14.20;99.90;;;;;;5074438;28;20035;-32
2022/10/23 01:55:56;;;;;;;9.38;4.97;;;14.10;99.90;;;;;;5081764;28;20024;-33
2022/10/23 01:58:24;;;;;;;11.25;5.05;;;14.00;99.90;;;;;;5074445;28;20052;-31
2022/10/23 02:00:51;;;;;;;7.20;5.07;;;14.00;99.90;;;;;;5078745;28;20028;-31
2022/10/23 02:03:18;;;;;;;13.90;5.75;;;14.10;99.90;;;;;;5079033;28;20025;-31
2022/10/23 02:05:44;;;;;;;15.20;5.22;;;14.00;99.90;;;;;;5073537;28;20111;-31
2022/10/23 02:08:10;;;;;;;17.02;5.28;;;14.00;99.90;;;;;;5072959;28;20103;-31
2022/10/23 02:10:59;;;;;;;6.93;4.45;;;14.00;99.90;;;;;;5073397;28;20148;-31
2022/10/23 02:13:46;;;;;;;7.78;5.70;;;14.00;99.90;;;;;;5075897;28;20081;-33
2022/10/23 02:16:24;;;;;;;8.82;5.45;;;14.00;99.90;;;;;;5079436;28;20023;-30
2022/10/23 02:19:03;;;;;;;10.73;4.65;;;14.00;99.90;;;;;;5072213;28;20037;-34
2022/10/23 02:21:55;;;;;;;9.23;4.88;;;14.00;99.90;;;;;;5077420;28;20029;-32
2022/10/23 02:24:38;;;;;;;10.90;5.10;;;13.90;99.90;;;;;;5067123;28;20504;-31
2022/10/23 02:27:14;;;;;;;8.43;4.93;;;13.90;99.90;;;;;;5071802;28;20032;-39
2022/10/23 02:29:45;;;;;;;8.77;4.35;;;13.90;99.90;;;;;;5070686;28;20028;-37
2022/10/23 02:32:13;;;;;;;12.23;4.50;;;13.90;99.90;;;;;;5082567;28;20460;-39
2022/10/23 02:34:39;;;;;;;;;;;13.90;99.90;;;;;;5059749;28;20493;-39
2022/10/23 02:37:04;;;;;;;9.35;5.05;;;13.80;99.90;;;;;;5083037;28;20014;-32
2022/10/23 02:39:30;;;;;;;7.35;5.00;;;13.80;99.90;;;;;;5072230;28;20107;-38
2022/10/23 02:42:11;;;;;;;15.88;5.05;;;13.80;99.90;;;;;;5072782;28;20564;-32
2022/10/23 02:44:58;;;;;;;13.15;5.20;;;13.80;99.90;;;;;;5073733;28;20033;-32
2022/10/23 02:47:58;;;;;;;4.35;3.63;;;14.00;99.90;;;;;;5080141;28;20499;-40
2022/10/23 02:50:54;;;;;;;10.45;5.10;;;13.90;99.90;;;;;;5074616;28;20016;-57
2022/10/23 02:53:43;;;;;;;9.13;5.22;;;14.00;99.90;;;;;;5062313;28;20040;-39
2022/10/23 02:56:40;;;;;;;16.48;5.63;;;14.00;99.90;;;;;;5063709;28;20029;-31
2022/10/23 02:59:10;;;;;;;6.35;3.65;;;13.90;99.90;;;;;;5058137;28;20039;-34
2022/10/23 03:01:49;;;;;;;9.93;5.20;;;13.90;99.90;;;;;;5068127;28;20033;-35
2022/10/23 03:04:17;;;;;;;11.63;5.07;;;13.80;99.90;;;;;;5057103;28;20079;-30
2022/10/23 03:06:44;;;;;;;31.98;5.47;;;13.80;99.90;;;;;;5072043;28;20028;-31
2022/10/23 03:09:09;;;;;;;7.47;4.55;;;13.80;99.90;;;;;;5071795;28;20029;-32
2022/10/23 03:11:35;;;;;;;11.68;5.35;;;13.70;99.90;;;;;;5070832;28;20392;-34
2022/10/23 03:14:01;;;;;;;10.63;5.90;;;13.70;99.90;;;;;;5072350;28;20120;-32
2022/10/23 03:16:27;;;;;;;13.88;4.38;;;13.70;99.90;;;;;;5078583;28;20032;-32
2022/10/23 03:18:53;;;;;;;7.35;4.57;;;13.80;99.90;;;;;;5076196;28;20048;-33
2022/10/23 03:21:18;;;;;;;8.52;5.20;;;13.80;99.90;;;;;;5069400;28;20032;-33
2022/10/23 03:23:44;;;;;;;6.93;4.53;;;13.70;99.90;;;;;;5071696;28;20464;-33
2022/10/23 03:26:10;;;;;;;7.03;4.80;;;13.80;99.90;;;;;;5070673;28;20490;-38
2022/10/23 03:28:35;;;;;;;10.20;5.10;;;13.70;99.90;;;;;;5083650;28;20028;-40
2022/10/23 03:31:02;;;;;;;8.60;4.15;;;13.60;99.90;;;;;;5083403;28;20087;-41
2022/10/23 03:33:29;;;;;;;6.47;4.13;;;13.60;99.90;;;;;;5074065;28;20086;-47
2022/10/23 03:35:54;;;;;;;6.50;4.55;;;13.50;99.90;;;;;;5073657;28;20077;-40
2022/10/23 03:38:20;;;;;;;5.40;4.45;;;13.60;99.90;;;;;;5071790;28;20477;-40
2022/10/23 03:40:46;;;;;;;9.95;4.38;;;13.60;99.90;;;;;;5073161;28;20034;-40
2022/10/23 03:43:12;;;;;;;7.68;4.40;;;13.70;99.90;;;;;;5073517;28;20496;-39
2022/10/23 03:45:37;;;;;;;11.98;4.72;;;13.70;99.90;;;;;;5071881;28;20016;-41
2022/10/23 03:48:06;;;;;;;13.43;4.82;;;13.70;99.90;;;;;;5077306;28;20028;-37
2022/10/23 03:50:33;;;;;;;10.93;4.45;;;13.70;99.90;;;;;;5071525;28;20099;-40
2022/10/23 03:52:59;;;;;;;7.43;3.67;;;13.70;99.90;;;;;;5074006;28;20472;-40
2022/10/23 03:55:25;;;;;;;6.95;3.92;;;13.70;99.90;;;;;;5073016;28;20320;-38
2022/10/23 03:57:52;;;;;;;8.20;4.72;;;13.70;99.90;;;;;;5079544;28;20530;-39
2022/10/23 04:00:18;;;;;;;7.82;4.18;;;13.80;99.90;;;;;;5082744;28;20059;-39
2022/10/23 04:02:44;;;;;;;7.47;4.80;;;13.80;99.90;;;;;;5075696;28;20457;-48
2022/10/23 04:05:09;;;;;;;6.70;4.10;;;13.80;99.90;;;;;;5075901;28;20051;-39
2022/10/23 04:07:36;;;;;;;10.80;4.82;;;13.80;99.90;;;;;;5077689;28;20016;-40
2022/10/23 04:10:02;;;;;;;8.00;4.45;;;13.70;99.90;;;;;;5075548;28;20031;-37
2022/10/23 04:12:28;;;;;;;11.30;4.30;;;13.80;99.90;;;;;;5074804;28;20499;-40
2022/10/23 04:14:54;;;;;;;7.47;4.38;;;13.80;99.90;;;;;;5089150;28;20044;-40
2022/10/23 04:17:19;;;;;;;11.65;4.65;;;13.90;99.90;;;;;;5077964;28;20507;-40
2022/10/23 04:19:45;;;;;;;14.77;4.57;;;13.90;99.90;;;;;;5074798;28;20388;-41
2022/10/23 04:22:10;;;;;;;9.63;4.80;;;13.80;99.90;;;;;;5075206;28;20036;-39
2022/10/23 04:24:36;;;;;;;11.10;4.78;;;13.90;99.90;;;;;;5073919;28;20480;-41
2022/10/23 04:27:02;;;;;;;13.10;4.82;;;13.90;99.90;;;;;;5075069;28;20103;-34
2022/10/23 04:29:30;;;;;;;13.25;4.78;;;13.90;99.90;;;;;;5076868;28;20025;-30
2022/10/23 04:31:56;;;;;;;9.52;4.25;;;13.90;99.90;;;;;;5076789;28;20029;-31
2022/10/23 04:34:21;;;;;;;10.00;3.97;;;13.90;99.90;;;;;;5076906;28;20506;-31
2022/10/23 04:36:47;;;;;;;13.27;5.05;;;14.00;99.90;;;;;;5083324;28;20034;-33
2022/10/23 04:39:13;;;;;;;6.43;4.65;;;14.00;99.90;;;;;;5075113;28;20538;-30
2022/10/23 04:41:39;;;;;;;16.27;4.68;;;13.90;99.90;;;;;;5075462;28;20374;-32
2022/10/23 04:44:05;;;;;;;17.20;4.70;;;14.00;99.90;;;;;;5076882;28;20027;-37
2022/10/23 04:46:30;;;;;;;11.05;3.85;;;14.00;99.90;;;;;;5067139;28;20024;-31
2022/10/23 04:48:56;;;;;;;6.57;4.10;;;14.00;99.90;;;;;;5073425;28;20032;-30
2022/10/23 04:51:21;;;;;;;7.35;4.38;;;14.00;99.90;;;;;;5079386;28;20473;-32
2022/10/23 04:53:47;;;;;;;11.13;4.35;;;14.00;99.90;;;;;;5075065;28;20020;-31
2022/10/23 04:56:14;;;;;;;5.95;4.30;;;14.00;99.90;;;;;;5075460;28;20438;-34
2022/10/23 04:58:39;;;;;;;13.77;5.13;;;13.90;99.90;;;;;;5073833;28;20032;-38
2022/10/23 05:01:06;;;;;;;7.40;4.43;;;14.00;99.90;;;;;;5074555;28;20029;-39
2022/10/23 05:03:32;;;;;;;6.20;3.42;;;13.90;99.90;;;;;;5074720;28;20031;-33
2022/10/23 05:05:58;;;;;;;7.82;4.38;;;13.90;99.90;;;;;;5074376;28;20504;-36
2022/10/23 05:08:24;;;;;;;12.38;4.60;;;14.00;99.90;;;;;;5073998;28;20542;-38
2022/10/23 05:10:50;;;;;;;5.40;3.72;;;14.00;99.90;;;;;;5073378;28;20040;-34
2022/10/23 05:13:18;;;;;;;5.82;3.97;;;14.00;99.90;;;;;;5075501;28;20033;-33
2022/10/23 05:15:45;;;;;;;11.05;4.07;;;14.10;99.90;;;;;;5074664;28;20101;-42
2022/10/23 05:18:16;;;;;;;12.00;4.13;;;14.20;99.90;;;;;;5073517;28;20027;-36
2022/10/23 05:20:43;;;;;;;5.45;3.10;;;14.10;99.90;;;;;;5072815;28;20481;-38
2022/10/23 05:23:12;;;;;;;15.77;4.43;;;14.20;99.90;;;;;;5074477;28;20036;-32
2022/10/23 05:25:37;;;;;;;10.93;3.95;;;14.20;99.90;;;;;;5079734;28;20027;-36
2022/10/23 05:28:03;;;;;;;5.20;3.72;;;14.20;99.90;;;;;;5075969;28;20024;-30
2022/10/23 05:33:13;;;;;;;6.50;3.17;;;14.20;99.90;;;;;;5067947;28;20043;-30
2022/10/23 05:35:43;;;;;;;7.55;4.35;;;14.20;99.90;;;;;;5075817;28;20397;-39
2022/10/23 05:38:09;;;;;;;7.93;3.10;;;14.20;99.90;;;;;;5074443;28;20111;-40
2022/10/23 05:40:35;;;;;;;5.20;3.90;;;14.20;99.90;;;;;;5073330;28;20025;-31
2022/10/23 05:43:00;;;;;;;6.45;4.15;;;14.20;99.90;;;;;;5075974;28;20028;-36
2022/10/23 05:45:26;;;;;;;6.28;3.47;;;14.30;99.90;;;;;;5075226;28;20064;-33
2022/10/23 05:47:52;;;;;;;8.07;3.25;;;14.30;99.90;;;;;;5074871;28;20056;-37
2022/10/23 05:50:18;;;;;;;7.20;3.10;;;14.30;99.90;;;;;;5079185;28;20023;-31
2022/10/23 05:52:48;;;;;;;5.75;2.85;;;14.30;99.90;;;;;;5080467;28;20457;-31
2022/10/23 05:55:14;;;;;;;11.43;3.35;;;14.30;99.90;;;;;;5084592;28;20401;-30
2022/10/23 05:57:40;;;;;;;11.40;3.08;;;14.30;99.90;;;;;;5077377;28;20020;-31
2022/10/23 06:00:06;;;;;;;9.35;3.20;;;14.40;99.90;;;;;;5071921;28;20039;-30
2022/10/23 06:02:32;;;;;;;4.38;2.92;;;14.40;99.90;;;;;;5079206;28;20024;-36
2022/10/23 06:04:58;;;;;;;4.93;2.90;;;14.50;99.90;;;;;;5079242;28;20043;-30
2022/10/23 06:07:25;;;;;;;4.85;3.28;;;14.50;99.90;;;;;;5074163;28;20012;-35
2022/10/23 06:09:51;;;;;;;5.20;2.85;;;14.50;99.90;;;;;;5073283;28;20139;-34
2022/10/23 06:12:18;;;;;;;5.97;3.42;;;14.50;99.90;;;;;;5082449;28;20024;-31
2022/10/23 06:14:43;;;;;;;5.78;3.10;;;14.60;99.90;;;;;;5079381;28;20045;-34
2022/10/23 06:17:09;;;;;;;9.20;3.20;;;14.60;99.90;;;;;;5074774;28;20035;-39
2022/10/23 06:19:34;;;;;;;8.02;3.20;;;14.60;99.90;;;;;;5073091;28;20032;-39
2022/10/23 06:22:00;;;;;;;7.93;3.65;;;14.60;99.90;;;;;;5070769;28;20420;-39
2022/10/23 06:24:25;;;;;;;4.43;2.75;;;14.60;99.90;;;;;;5072757;28;20056;-39
2022/10/23 06:26:51;;;;;;;12.18;3.47;;;14.60;99.90;;;;;;5077269;28;20103;-40
2022/10/23 06:29:17;;;;;;;4.63;3.20;;;14.50;99.90;;;;;;5072859;28;20016;-31
2022/10/23 06:31:42;;;;;;;10.82;3.28;;;14.50;99.90;;;;;;5078783;28;20032;-35
2022/10/23 06:34:13;;;;;;;7.90;3.10;;;14.50;99.90;;;;;;5073043;28;20876;-31
2022/10/23 06:36:39;;;;;;;4.78;3.25;;;14.50;99.90;;;;;;5075307;28;20025;-30
2022/10/23 06:39:05;;;;;;;9.80;3.00;;;14.50;99.90;;;;;;5070734;28;20477;-34
2022/10/23 06:41:30;;;;;;;4.22;3.42;;;14.50;99.90;;;;;;5071874;28;20032;-39
2022/10/23 06:43:56;;;;;;;9.25;3.35;;;14.50;99.90;;;;;;5074763;28;20377;-39
2022/10/23 06:46:22;;;;;;;4.25;3.25;;;14.50;99.90;;;;;;5079698;28;20103;-40
2022/10/23 06:48:47;;;;;;;6.40;3.47;;;14.50;99.90;;;;;;5072760;28;20083;-39
2022/10/23 06:51:15;;;;;;;8.50;3.00;;;14.50;99.90;;;;;;5070565;28;20052;-39
2022/10/23 06:53:42;;;;;;;7.32;3.50;;;14.50;99.90;;;;;;5073878;28;20044;-39
2022/10/23 06:56:09;;;;;;;9.13;4.05;;;14.50;99.90;;;;;;5070627;28;20025;-40
2022/10/23 06:58:53;;;;;;;5.25;3.45;;;14.50;99.90;;;;;;5093590;28;20483;-40
2022/10/23 07:01:19;;;;;;;9.05;3.30;;;14.50;99.90;;;;;;5069462;28;20477;-40
2022/10/23 07:03:46;;;;;;;7.90;3.88;;;14.50;99.90;;;;;;5054808;28;20066;-37
2022/10/23 07:06:12;;;;;;;3.47;2.60;;;14.40;99.90;;;;;;5075543;28;20044;-37
2022/10/23 07:08:38;;;;;;;5.20;3.25;;;14.50;99.90;;;;;;5073407;28;20027;-30
2022/10/23 07:11:05;;;;;;;6.78;3.72;;;14.50;99.90;;;;;;5070271;28;20496;-34
2022/10/23 07:13:33;;;;;;;4.82;3.55;;;14.50;99.90;;;;;;5071543;28;20031;-37
2022/10/23 07:15:58;;;;;;;10.82;4.65;;;14.50;99.90;;;;;;5071423;28;20111;-31
2022/10/23 07:18:24;;;;;;;4.93;3.28;;;14.50;99.90;;;;;;5071198;28;20484;-39
2022/10/23 07:20:57;;;;;;;8.90;3.50;;;14.50;99.90;;;;;;5071566;28;20040;-41
2022/10/23 07:23:22;;;;;;;6.63;3.90;;;14.50;99.90;;;;;;5068877;28;20528;-35
2022/10/23 07:25:48;;;;;;;8.75;3.88;;;14.50;99.90;;;;;;5071798;28;20085;-40
2022/10/23 07:28:13;;;;;;;4.63;3.53;;;14.60;99.90;;;;;;5069535;28;20127;-36
2022/10/23 07:30:40;;;;;;;11.75;3.50;;;14.60;99.90;;;;;;5069317;28;20021;-39
2022/10/23 07:33:06;;;;;;;6.68;3.22;;;14.60;99.90;;;;;;5066866;28;20063;-40
2022/10/23 07:35:32;;;;;;;5.90;3.33;;;14.60;99.90;;;;;;5070324;28;20107;-40
2022/10/23 07:38:00;;;;;;;11.32;3.58;;;14.70;99.90;;;;;;5085270;28;20107;-38
2022/10/23 07:40:26;;;;;;;5.13;3.15;;;14.70;99.90;;;;;;5068506;28;20466;-39
2022/10/23 07:42:52;;;;;;;10.32;3.15;;;14.70;99.90;;;;;;5072131;28;20103;-39
2022/10/23 07:45:17;;;;;;;8.35;3.92;;;14.60;99.90;;;;;;5071603;28;20380;-39
2022/10/23 07:47:48;;;;;;;17.15;3.47;;;14.70;99.90;;;;;;5073363;28;20107;-39
2022/10/23 07:50:14;;;;;;;11.93;3.30;;;14.70;99.90;;;;;;5072210;28;20031;-40
2022/10/23 07:52:39;;;;;;;6.18;3.08;;;14.60;99.90;;;;;;5070857;28;20397;-30
2022/10/23 07:55:05;;;;;;;5.72;3.70;;;14.70;99.90;;;;;;5071182;28;20085;-35
2022/10/23 07:57:31;;;;;;;6.57;3.42;;;14.70;99.90;;;;;;5086164;28;20115;-31
2022/10/23 07:59:56;;;;;;;5.43;3.85;;;14.80;99.90;;;;;;5086072;28;20052;-32
2022/10/23 08:02:22;;;;;;;8.27;3.85;;;14.80;99.90;;;;;;5070031;28;20032;-31
2022/10/23 08:04:48;;;;;;;12.13;3.45;;;14.90;99.90;;;;;;5068418;28;20055;-34
2022/10/23 08:07:14;;;;;;;12.45;3.92;;;14.90;99.90;;;;;;5070725;28;20048;-34
2022/10/23 08:09:39;;;;;;;14.25;3.17;;;15.00;99.90;;;;;;5064383;28;20041;-33
2022/10/23 08:12:05;;;;;;;9.43;3.30;;;15.00;99.90;;;;;;5079204;28;20063;-37
2022/10/23 08:14:31;;;;;;;4.75;2.97;;;15.00;99.90;;;;;;5071601;28;20086;-30
2022/10/23 08:16:56;;;;;;;4.75;2.65;;;15.00;99.90;;;;;;5083498;28;20468;-38
2022/10/23 08:19:22;;;;;;;12.48;3.45;;;15.10;99.90;;;;;;5067631;28;20032;-33
2022/10/23 08:21:53;;;;;;;7.25;3.20;;;15.10;99.90;;;;;;5065652;28;20037;-42
2022/10/23 08:24:19;;;;;;;14.27;3.25;;;15.10;99.90;;;;;;5071571;28;20349;-39
2022/10/23 08:26:45;;;;;;;9.27;2.85;;;15.10;99.90;;;;;;5070443;28;20021;-39
2022/10/23 08:29:10;;;;;;;7.50;4.03;;;15.20;99.90;;;;;;5072404;28;20473;-39
2022/10/23 08:31:36;;;;;;;15.32;3.40;;;15.20;99.90;;;;;;5075238;28;20570;-40
2022/10/23 08:34:02;;;;;;;5.03;3.22;;;15.20;99.90;;;;;;5069849;28;20075;-38
2022/10/23 08:36:28;;;;;;;5.60;3.25;;;15.30;99.90;;;;;;5073611;28;20028;-44
2022/10/23 08:38:56;;;;;;;5.93;3.15;;;15.20;99.90;;;;;;5070645;28;20028;-39
2022/10/23 08:41:27;;;;;;;11.00;3.42;;;15.30;99.90;;;;;;5072725;28;20021;-40
2022/10/23 08:43:59;;;;;;;7.20;3.20;;;15.30;99.90;;;;;;5073771;28;20016;-40
2022/10/23 08:46:30;;;;;;;5.55;3.17;;;15.30;99.90;;;;;;5073837;28;20028;-39
2022/10/23 08:49:27;;;;;;;3.63;2.92;;;15.30;99.90;;;;;;5072932;28;20541;-39
2022/10/23 08:51:56;;;;;;;4.53;3.03;;;15.20;99.90;;;;;;5070600;28;20476;-31
2022/10/23 08:54:51;;;;;;;8.52;3.08;;;15.30;99.90;;;;;;5082207;28;20393;-33
2022/10/23 08:57:18;;;;;;;5.85;3.38;;;15.30;99.90;;;;;;5074965;28;20400;-31
2022/10/23 08:59:57;;;;;;;6.47;3.30;;;15.30;99.90;;;;;;5072723;28;20548;-37
2022/10/23 09:02:34;;;;;;;10.70;3.33;;;15.40;99.90;;;;;;5063065;28;20377;-40
2022/10/23 09:04:59;;;;;;;5.15;2.90;;;15.50;99.90;;;;;;5074196;28;20567;-38
2022/10/23 09:07:59;;;;;;;6.78;3.30;;;15.50;99.90;;;;;;5076227;28;20092;-31
2022/10/23 09:11:06;;;;;;;12.93;3.78;;;15.50;99.90;;;;;;5014536;28;20043;-33
2022/10/23 09:13:39;;;;;;;5.97;2.80;;;15.60;99.90;;;;;;5049903;28;20082;-32
2022/10/23 09:16:23;;;;;;;10.43;3.05;;;15.60;99.90;;;;;;5072338;28;20040;-36
2022/10/23 09:18:49;;;;;;;6.07;3.05;;;15.70;99.90;;;;;;5072727;28;20017;-34
2022/10/23 09:21:14;;;;;;;12.55;3.05;;;15.70;99.90;;;;;;5073133;28;20103;-31
2022/10/23 09:23:40;;;;;;;7.07;2.85;;;15.70;99.90;;;;;;5075185;28;20531;-31
2022/10/23 09:26:17;;;;;;;6.68;3.38;;;15.70;99.90;;;;;;5095369;28;20493;-31
2022/10/23 09:28:46;;;;;;;14.20;3.25;;;15.80;99.90;;;;;;5091787;28;20016;-31
2022/10/23 09:31:12;;;;;;;3.83;2.58;;;15.80;99.90;;;;;;5073928;28;20069;-31
2022/10/23 09:33:39;;;;;;;4.80;2.92;;;15.90;99.90;;;;;;5073192;28;20020;-36
2022/10/23 09:36:13;;;;;;;6.47;2.50;;;15.90;99.90;;;;;;5083608;28;20112;-31
2022/10/23 09:38:49;;;;;;;3.55;2.40;;;15.80;99.90;;;;;;5075105;28;20020;-31
2022/10/23 09:41:28;;;;;;;15.27;4.25;;;15.80;99.90;;;;;;5073942;28;20396;-31
2022/10/23 09:44:06;;;;;;;11.45;2.83;;;15.80;99.90;;;;;;5073476;28;20033;-31
2022/10/23 09:46:47;;;;;;;5.57;2.85;;;15.80;99.90;;;;;;5078945;28;20016;-30
2022/10/23 09:49:18;;;;;;;5.35;2.90;;;15.80;99.90;;;;;;5095182;28;20042;-33
2022/10/23 09:52:03;;;;;;;8.20;2.83;;;15.90;99.90;;;;;;5084574;28;20388;-30
2022/10/23 09:54:38;;;;;;;4.28;2.15;;;15.90;99.90;;;;;;5074487;28;20473;-31
2022/10/23 09:57:37;;;;;;;8.70;2.38;;;15.90;99.90;;;;;;5073777;28;20055;-32
2022/10/23 10:00:20;;;;;;;3.00;2.03;;;16.00;99.90;;;;;;5076912;28;20032;-32
2022/10/23 10:03:02;;;;;;;5.68;2.75;;;16.00;99.90;;;;;;5087366;28;20084;-33
2022/10/23 10:05:29;;;;;;;4.55;2.28;;;16.10;99.90;;;;;;5073111;28;20040;-31
2022/10/23 10:08:00;;;;;;;4.55;2.58;;;16.10;99.90;;;;;;5073196;28;20485;-31
2022/10/23 10:10:33;;;;;;;7.32;3.30;;;16.20;99.90;;;;;;5069886;28;20025;-32
2022/10/23 10:13:13;;;;;;;8.10;2.67;;;16.20;99.90;;;;;;5073387;28;20028;-31
2022/10/23 10:15:45;;;;;;;3.17;2.05;;;16.30;99.90;;;;;;5070576;28;20495;-32
2022/10/23 10:18:32;;;;;;;7.00;2.75;;;16.30;99.90;;;;;;5065494;28;20036;-31
2022/10/23 10:21:03;;;;;;;7.63;2.35;;;16.30;99.90;;;;;;5067876;28;20036;-33
2022/10/23 10:23:56;;;;;;;3.35;2.13;;;16.40;99.90;;;;;;5053910;28;20032;-33
2022/10/23 10:26:51;;;;;;;4.05;2.30;;;16.40;99.90;;;;;;5069743;28;20037;-31
2022/10/23 10:29:35;;;;;;;4.18;2.10;;;16.50;99.90;;;;;;5069710;28;20025;-65
2022/10/23 10:32:37;;;;;;;4.00;2.15;;;16.50;99.90;;;;;;5054037;28;20448;-32
2022/10/23 10:35:17;;;;;;;5.32;2.13;;;16.50;99.90;;;;;;5063509;28;20502;-36
2022/10/23 10:38:10;;;;;;;6.28;1.95;;;16.50;99.90;;;;;;5077542;28;20492;-32
2022/10/23 10:40:54;;;;;;;6.82;1.75;;;16.60;99.90;;;;;;5069416;28;20181;-32
2022/10/23 10:43:30;;;;;;;3.03;1.90;;;16.70;99.90;;;;;;5069426;28;20070;-33
2022/10/23 10:46:13;;;;;;;2.55;2.00;;;16.70;99.90;;;;;;5083861;28;20468;-31
2022/10/23 10:49:04;;;;;;;5.68;2.05;;;16.80;99.90;;;;;;5093946;28;20425;-39
2022/10/23 10:51:49;;;;;;;3.13;1.90;;;16.90;99.90;;;;;;5085196;28;20096;-41
2022/10/23 10:54:32;;;;;;;3.72;2.90;;;16.90;99.90;;;;;;5084544;28;20096;-39
2022/10/23 10:57:05;;;;;;;3.03;2.05;;;16.90;99.90;;;;;;5071873;28;20028;-39
2022/10/23 10:59:36;;;;;;;4.28;2.00;;;17.00;99.90;;;;;;5071701;28;20117;-40
2022/10/23 11:02:36;;;;;;;12.70;2.40;;;17.00;99.90;;;;;;5072030;28;20078;-39
2022/10/23 11:05:18;;;;;;;4.80;1.83;;;17.10;99.90;;;;;;5070594;28;20067;-41
2022/10/23 11:08:27;;;;;;;5.88;1.90;;;17.10;99.90;;;;;;5066574;28;20021;-40
2022/10/23 11:10:59;;;;;;;6.25;2.05;;;17.20;99.90;;;;;;5079747;28;20024;-39
2022/10/23 11:13:39;;;;;;;1.63;1.52;;;17.20;99.90;;;;;;5072072;28;20032;-40
2022/10/23 11:16:21;;;;;;;4.03;2.10;;;17.20;99.90;;;;;;5081630;28;20491;-40
2022/10/23 11:19:11;;;;;;;5.78;2.28;;;17.30;99.90;;;;;;5084788;28;20352;-39
2022/10/23 11:22:00;;;;;;;4.68;2.28;;;17.40;99.90;;;;;;5076486;28;20502;-56
2022/10/23 11:25:00;;;;;;;7.35;2.90;;;17.40;99.90;;;;;;5073664;28;20029;-40
2022/10/23 11:27:34;;;;;;;2.47;2.15;;;17.40;99.90;;;;;;5053329;28;20040;-39
2022/10/23 11:30:11;;;;;;;4.88;1.77;;;17.40;99.90;;;;;;5074379;28;20385;-41
2022/10/23 11:33:14;;;;;;;5.35;1.92;;;17.40;99.90;;;;;;5068601;28;20028;-41
2022/10/23 11:36:04;;;;;;;5.32;2.17;;;17.50;99.90;;;;;;5065024;28;20404;-37
2022/10/23 11:38:35;;;;;;;4.65;1.90;;;17.60;99.90;;;;;;5069299;28;20032;-36
2022/10/23 11:41:04;;;;;;;5.78;2.40;;;17.70;99.90;;;;;;5071818;28;20030;-32
2022/10/23 11:43:46;;;;;;;4.55;2.53;;;17.80;99.90;;;;;;5070614;28;20078;-35
2022/10/23 11:46:21;;;;;;;3.38;1.90;;;17.90;99.90;;;;;;5076994;28;20315;-34
2022/10/23 11:48:47;;;;;;;3.15;1.95;;;18.00;99.90;;;;;;5078662;28;20029;-29
2022/10/23 11:51:29;;;;;;;2.70;1.85;;;18.10;99.90;;;;;;5074240;28;20051;-30
2022/10/23 11:54:10;;;;;;;4.43;1.92;;;18.20;99.90;;;;;;5068641;28;20115;-29
2022/10/23 11:56:37;;;;;;;2.45;1.80;;;18.20;99.90;;;;;;5088983;28;20032;-31
2022/10/23 11:59:44;;;;;;;3.67;2.30;;;18.20;99.90;;;;;;5070322;28;20029;-39
2022/10/23 12:02:26;;;;;;;3.65;2.15;;;18.30;99.90;;;;;;5070002;28;20033;-33
2022/10/23 12:04:53;;;;;;;2.20;1.60;;;18.40;99.90;;;;;;5072462;28;20052;-31
2022/10/23 12:07:28;;;;;;;3.67;2.33;;;18.40;99.90;;;;;;5072829;28;20043;-32
2022/10/23 12:10:06;;;;;;;2.58;2.10;;;18.50;99.90;;;;;;5072100;28;20028;-30
2022/10/23 12:12:41;;;;;;;3.85;2.10;;;18.60;99.90;;;;;;5064712;28;20578;-32
2022/10/23 12:15:15;;;;;;;2.55;1.77;;;18.60;99.90;;;;;;5071385;28;20047;-33
2022/10/23 12:17:42;;;;;;;2.25;1.67;;;18.60;99.90;;;;;;5075279;28;20055;-34
2022/10/23 12:20:08;;;;;;;3.53;1.80;;;18.60;99.90;;;;;;5086738;28;20028;-31
2022/10/23 12:22:56;;;;;;;3.30;2.53;;;18.60;99.90;;;;;;5084953;28;20081;-33
2022/10/23 12:25:46;;;;;;;2.47;2.10;;;18.60;99.90;;;;;;5072893;28;21273;-34
2022/10/23 12:28:15;;;;;;;2.60;2.00;;;18.70;99.90;;;;;;5073900;28;20439;-30
2022/10/23 12:31:13;;;;;;;4.25;2.00;;;18.70;99.90;;;;;;5083837;28;20043;-32
2022/10/23 12:33:48;;;;;;;2.67;2.05;;;18.70;99.90;;;;;;5055956;28;20200;-33
2022/10/23 12:36:25;;;;;;;2.80;1.88;;;18.70;99.90;;;;;;5082035;28;20481;-32
2022/10/23 12:38:50;;;;;;;2.20;1.87;;;18.70;99.90;;;;;;5072511;28;20024;-30
2022/10/23 12:41:28;;;;;;;16.30;8.35;;;18.80;99.90;;;;;;5074943;28;20029;-32
2022/10/23 12:43:57;;;;;;;178.75;70.18;;;18.70;99.90;;;;;;5073585;28;20035;-37
2022/10/23 12:46:32;;;;;;;13.88;6.88;;;18.70;99.90;;;;;;5075814;28;20024;-32
2022/10/23 12:48:59;;;;;;;356.02;168.93;;;18.70;99.90;;;;;;5075811;28;20048;-31
2022/10/23 12:51:27;;;;;;;86.22;41.53;;;18.60;99.90;;;;;;5074237;28;20444;-32
2022/10/23 12:53:53;;;;;;;8.00;5.75;;;18.60;99.90;;;;;;5067293;28;20023;-33
2022/10/23 12:56:19;;;;;;;5.28;3.28;;;18.70;99.90;;;;;;5080329;28;20024;-45
2022/10/23 12:58:53;;;;;;;2.90;2.30;;;18.70;99.90;;;;;;5076956;28;20158;-36
2022/10/23 13:01:28;;;;;;;6.10;3.05;;;18.70;99.90;;;;;;5069836;28;20074;-33
2022/10/23 13:04:06;;;;;;;2.83;2.55;;;18.80;99.90;;;;;;5075876;28;20032;-32
2022/10/23 13:06:32;;;;;;;13.13;5.43;;;18.80;99.90;;;;;;5072740;28;20040;-34
2022/10/23 13:08:58;;;;;;;6.22;2.45;;;18.70;99.90;;;;;;5070265;28;20078;-32
2022/10/23 13:11:26;;;;;;;4.07;2.33;;;18.70;99.90;;;;;;5072618;28;20016;-33